Time;durP1;ratioP1;P1;durP2;ratioP2;P2;SDS_P1;SDS_P2;PMS_P1;PMS_P2;Temp;Humidity;BMP_temperature;BMP_pressure;BME280_temperature;BME280_humidity;BME280_pressure;Samples;Min_cycle;Max_cycle;Signal;HPM_P1;HPM_P2
2022/09/21 00:00:33;;;;;;;3.85;2.58;;;;;;;;;;5013202;28;20030;-65
2022/09/21 00:03:00;;;;;;;4.30;2.60;;;;;;;;;;5009038;28;20036;-65
2022/09/21 00:05:26;;;;;;;3.92;2.53;;;;;;;;;;5003868;28;20037;-65
2022/09/21 00:07:52;;;;;;;4.15;2.92;;;;;;;;;;4994707;28;20137;-65
2022/09/21 00:10:19;;;;;;;5.60;3.83;;;;;;;;;;4994515;28;20034;-65
2022/09/21 00:12:47;;;;;;;9.68;2.85;;;;;;;;;;5032329;28;20034;-65
2022/09/21 00:15:13;;;;;;;5.00;2.58;;;;;;;;;;5033799;28;20401;-65
2022/09/21 00:17:39;;;;;;;8.40;2.70;;;;;;;;;;5033726;28;20040;-64
2022/09/21 00:20:06;;;;;;;4.97;3.00;;;;;;;;;;5033635;28;20393;-64
2022/09/21 00:22:33;;;;;;;4.97;2.72;;;;;;;;;;5033728;28;20116;-64
2022/09/21 00:25:02;;;;;;;4.35;2.80;;;;;;;;;;5032686;28;20136;-64
2022/09/21 00:27:31;;;;;;;5.00;3.10;;;;;;;;;;5033165;28;20120;-64
2022/09/21 00:30:00;;;;;;;8.05;3.35;;;;;;;;;;5033673;28;20394;-64
2022/09/21 00:32:26;;;;;;;7.10;2.75;;;;;;;;;;5017152;28;20033;-64
2022/09/21 00:34:52;;;;;;;2.65;2.20;;;;;;;;;;5013650;28;20029;-64
2022/09/21 00:37:19;;;;;;;5.55;3.33;;;;;;;;;;5013451;28;20088;-64
2022/09/21 00:39:46;;;;;;;3.53;2.33;;;;;;;;;;5013814;28;20037;-64
2022/09/21 00:42:23;;;;;;;5.88;2.33;;;;;;;;;;5013702;28;20030;-64
2022/09/21 00:44:49;;;;;;;6.72;2.65;;;;;;;;;;5013511;28;20483;-64
2022/09/21 00:47:23;;;;;;;5.65;2.50;;;;;;;;;;5013476;28;20034;-64
2022/09/21 00:49:53;;;;;;;3.72;2.28;;;;;;;;;;5015699;28;20573;-64
2022/09/21 00:52:20;;;;;;;4.10;2.50;;;;;;;;;;5013228;28;20165;-64
2022/09/21 00:54:51;;;;;;;4.50;2.75;;;;;;;;;;5013456;28;20033;-64
2022/09/21 00:57:20;;;;;;;5.25;2.92;;;;;;;;;;5013274;28;20037;-64
2022/09/21 00:59:46;;;;;;;4.20;2.53;;;;;;;;;;5013222;28;20118;-64
2022/09/21 01:02:14;;;;;;;3.97;2.30;;;;;;;;;;5013215;28;20034;-64
2022/09/21 01:04:40;;;;;;;3.80;2.38;;;;;;;;;;5025026;28;20108;-64
2022/09/21 01:07:11;;;;;;;6.90;1.98;;;;;;;;;;5033038;28;20033;-64
2022/09/21 01:09:38;;;;;;;4.45;2.70;;;;;;;;;;5026887;28;20050;-64
2022/09/21 01:12:17;;;;;;;2.78;2.00;;;;;;;;;;5013132;28;20069;-64
2022/09/21 01:14:54;;;;;;;3.88;2.10;;;;;;;;;;5012782;28;20478;-64
2022/09/21 01:17:39;;;;;;;5.65;2.67;;;;;;;;;;5008742;28;20022;-64
2022/09/21 01:20:24;;;;;;;7.00;2.80;;;;;;;;;;5032839;28;20032;-64
2022/09/21 01:23:09;;;;;;;4.90;2.80;;;;;;;;;;5032676;28;20504;-64
2022/09/21 01:25:53;;;;;;;6.47;3.58;;;;;;;;;;5032336;28;20064;-64
2022/09/21 01:28:38;;;;;;;4.35;2.90;;;;;;;;;;5006833;28;20078;-64
2022/09/21 01:31:06;;;;;;;4.50;2.50;;;;;;;;;;4992259;28;20030;-64
2022/09/21 01:33:36;;;;;;;4.47;2.83;;;;;;;;;;4992794;28;20031;-64
2022/09/21 01:36:23;;;;;;;6.28;3.20;;;;;;;;;;5010294;28;20120;-64
2022/09/21 01:38:55;;;;;;;6.82;2.85;;;;;;;;;;5012581;28;20038;-64
2022/09/21 01:41:24;;;;;;;4.87;3.00;;;;;;;;;;5012751;28;20037;-64
2022/09/21 01:43:56;;;;;;;7.93;4.10;;;;;;;;;;5012500;28;20034;-64
2022/09/21 01:46:25;;;;;;;6.22;3.50;;;;;;;;;;5021783;28;20029;-64
2022/09/21 01:48:54;;;;;;;7.57;3.30;;;;;;;;;;5032578;28;20041;-64
2022/09/21 01:51:21;;;;;;;5.30;3.10;;;;;;;;;;5032227;28;20041;-64
2022/09/21 01:53:53;;;;;;;9.90;3.42;;;;;;;;;;5029969;28;20112;-64
2022/09/21 01:56:27;;;;;;;7.47;3.20;;;;;;;;;;5012847;28;20045;-64
2022/09/21 01:59:01;;;;;;;9.10;3.13;;;;;;;;;;5010869;28;20475;-64
2022/09/21 02:01:29;;;;;;;7.88;2.97;;;;;;;;;;5012159;28;20034;-64
2022/09/21 02:04:02;;;;;;;7.25;2.88;;;;;;;;;;5014953;28;20018;-64
2022/09/21 02:06:29;;;;;;;9.80;2.78;;;;;;;;;;5014983;28;20480;-65
2022/09/21 02:08:56;;;;;;;5.90;3.20;;;;;;;;;;5012457;28;20061;-64
2022/09/21 02:11:22;;;;;;;4.82;3.28;;;;;;;;;;5012385;28;20058;-64
2022/09/21 02:13:49;;;;;;;6.15;2.95;;;;;;;;;;5022739;28;20044;-64
2022/09/21 02:16:20;;;;;;;4.70;3.00;;;;;;;;;;5012290;28;20149;-65
2022/09/21 02:19:10;;;;;;;6.30;3.10;;;;;;;;;;5006954;28;20475;-64
2022/09/21 02:21:59;;;;;;;5.65;2.83;;;;;;;;;;4996787;28;20470;-64
2022/09/21 02:24:31;;;;;;;6.47;3.05;;;;;;;;;;4994459;28;20050;-64
2022/09/21 02:27:12;;;;;;;5.20;2.83;;;;;;;;;;4994175;28;20046;-64
2022/09/21 02:30:02;;;;;;;6.20;3.03;;;;;;;;;;4994356;28;20133;-64
2022/09/21 02:32:32;;;;;;;4.90;2.88;;;;;;;;;;5011607;28;20073;-64
2022/09/21 02:35:02;;;;;;;6.72;3.42;;;;;;;;;;5018042;28;20041;-64
2022/09/21 02:37:34;;;;;;;4.00;2.60;;;;;;;;;;5013770;28;20046;-64
2022/09/21 02:40:03;;;;;;;6.65;2.90;;;;;;;;;;5013589;28;20037;-64
2022/09/21 02:42:34;;;;;;;5.47;3.58;;;;;;;;;;5013156;28;20403;-64
2022/09/21 02:45:02;;;;;;;5.78;2.90;;;;;;;;;;5013607;28;20026;-64
2022/09/21 02:47:49;;;;;;;5.55;2.58;;;;;;;;;;5013646;28;20524;-64
2022/09/21 02:50:20;;;;;;;5.18;2.75;;;;;;;;;;5013706;28;20034;-64
2022/09/21 02:52:46;;;;;;;5.13;3.03;;;;;;;;;;5013420;28;20034;-64
2022/09/21 02:55:13;;;;;;;5.97;2.97;;;;;;;;;;5013359;28;20072;-64
2022/09/21 02:57:40;;;;;;;6.00;3.40;;;;;;;;;;5013414;28;20033;-64
2022/09/21 03:00:07;;;;;;;4.82;2.85;;;;;;;;;;5013068;28;20038;-64
2022/09/21 03:02:37;;;;;;;9.48;2.92;;;;;;;;;;5010257;28;20053;-64
2022/09/21 03:05:04;;;;;;;5.88;3.70;;;;;;;;;;4995822;28;20088;-64
2022/09/21 03:07:31;;;;;;;5.63;2.53;;;;;;;;;;4996313;28;20031;-64
2022/09/21 03:09:57;;;;;;;5.72;2.70;;;;;;;;;;5034797;28;20052;-64
2022/09/21 03:12:25;;;;;;;5.22;2.97;;;;;;;;;;5035389;28;20075;-64
2022/09/21 03:14:51;;;;;;;5.15;2.78;;;;;;;;;;5034657;28;20103;-64
2022/09/21 03:17:18;;;;;;;3.67;2.67;;;;;;;;;;5033708;28;20397;-64
2022/09/21 03:19:44;;;;;;;5.50;2.80;;;;;;;;;;5015120;28;20512;-64
2022/09/21 03:22:10;;;;;;;6.05;3.10;;;;;;;;;;5015334;28;20026;-64
2022/09/21 03:24:45;;;;;;;5.43;3.05;;;;;;;;;;5015006;28;20585;-64
2022/09/21 03:27:15;;;;;;;7.85;4.10;;;;;;;;;;5014870;28;20033;-64
2022/09/21 03:29:42;;;;;;;5.55;2.90;;;;;;;;;;5014725;28;20104;-64
2022/09/21 03:32:08;;;;;;;6.03;2.75;;;;;;;;;;5014861;28;20053;-64
2022/09/21 03:34:34;;;;;;;7.20;3.17;;;;;;;;;;5014823;28;20029;-64
2022/09/21 03:37:04;;;;;;;4.40;2.80;;;;;;;;;;5014676;28;20437;-64
2022/09/21 03:39:30;;;;;;;3.67;2.50;;;;;;;;;;5014787;28;20112;-64
2022/09/21 03:41:57;;;;;;;3.90;2.70;;;;;;;;;;5014607;28;20030;-64
2022/09/21 03:44:23;;;;;;;4.22;2.53;;;;;;;;;;5017172;28;20045;-64
2022/09/21 03:46:49;;;;;;;4.13;2.97;;;;;;;;;;5034254;28;20038;-64
2022/09/21 03:49:16;;;;;;;4.30;2.75;;;;;;;;;;5034543;28;20482;-64
2022/09/21 03:51:42;;;;;;;4.43;2.70;;;;;;;;;;5034378;28;20026;-64
2022/09/21 03:54:09;;;;;;;4.97;2.88;;;;;;;;;;5032422;28;20033;-64
2022/09/21 03:56:35;;;;;;;4.40;2.40;;;;;;;;;;5014598;28;20026;-64
2022/09/21 03:59:01;;;;;;;5.63;2.67;;;;;;;;;;5014183;28;20038;-64
2022/09/21 04:01:27;;;;;;;4.10;2.85;;;;;;;;;;5009102;28;20439;-64
2022/09/21 04:03:53;;;;;;;5.32;2.83;;;;;;;;;;5013256;28;20754;-64
2022/09/21 04:06:19;;;;;;;4.72;2.65;;;;;;;;;;4997814;28;20045;-64
2022/09/21 04:08:46;;;;;;;4.15;2.85;;;;;;;;;;5008844;28;20374;-64
2022/09/21 04:11:16;;;;;;;5.68;2.88;;;;;;;;;;5014275;28;20064;-64
2022/09/21 04:13:42;;;;;;;4.40;2.67;;;;;;;;;;5014656;28;20397;-64
2022/09/21 04:16:09;;;;;;;4.82;2.90;;;;;;;;;;5014501;28;20022;-64
2022/09/21 04:18:37;;;;;;;5.38;2.90;;;;;;;;;;5000221;28;20033;-64
2022/09/21 04:21:04;;;;;;;6.82;3.05;;;;;;;;;;5008382;28;20030;-64
2022/09/21 04:23:31;;;;;;;4.45;2.97;;;;;;;;;;5013639;28;20042;-64
2022/09/21 04:25:57;;;;;;;10.18;2.85;;;;;;;;;;5014345;28;20108;-64
2022/09/21 04:28:23;;;;;;;5.75;2.58;;;;;;;;;;5013922;28;20118;-64
2022/09/21 04:30:53;;;;;;;3.38;2.55;;;;;;;;;;5014528;28;20113;-64
2022/09/21 04:33:21;;;;;;;5.07;2.58;;;;;;;;;;5011497;28;20129;-64
2022/09/21 04:35:47;;;;;;;6.18;2.40;;;;;;;;;;4994719;28;20460;-64
2022/09/21 04:38:13;;;;;;;4.68;2.30;;;;;;;;;;4994306;28;20041;-64
2022/09/21 04:40:40;;;;;;;5.68;2.63;;;;;;;;;;4993895;28;20471;-64
2022/09/21 04:43:06;;;;;;;3.45;2.25;;;;;;;;;;4994554;28;20026;-64
2022/09/21 04:45:33;;;;;;;7.80;2.83;;;;;;;;;;4994507;28;20030;-64
2022/09/21 04:47:59;;;;;;;4.13;2.75;;;;;;;;;;5008549;28;20049;-64
2022/09/21 04:50:25;;;;;;;6.78;2.55;;;;;;;;;;5012532;28;20028;-64
2022/09/21 04:53:02;;;;;;;3.17;2.15;;;;;;;;;;5010654;28;20109;-64
2022/09/21 04:55:28;;;;;;;9.27;2.50;;;;;;;;;;5006570;28;20062;-64
2022/09/21 04:57:54;;;;;;;4.20;2.38;;;;;;;;;;5013204;28;20042;-64
2022/09/21 05:00:20;;;;;;;6.80;2.53;;;;;;;;;;5009512;28;20022;-64
2022/09/21 05:02:46;;;;;;;5.63;2.88;;;;;;;;;;5012236;28;20022;-64
2022/09/21 05:05:13;;;;;;;3.40;2.30;;;;;;;;;;5013346;28;20092;-64
2022/09/21 05:07:39;;;;;;;6.35;2.65;;;;;;;;;;5010584;28;20053;-64
2022/09/21 05:10:05;;;;;;;5.05;2.83;;;;;;;;;;5006091;28;20046;-64
2022/09/21 05:12:32;;;;;;;5.25;2.88;;;;;;;;;;5000925;28;20021;-64
2022/09/21 05:14:58;;;;;;;3.60;2.33;;;;;;;;;;5008949;28;20034;-64
2022/09/21 05:17:24;;;;;;;6.28;2.53;;;;;;;;;;5010709;28;20026;-64
2022/09/21 05:19:52;;;;;;;5.30;2.97;;;;;;;;;;5006473;28;20045;-64
2022/09/21 05:22:18;;;;;;;4.00;2.20;;;;;;;;;;5008932;28;20033;-64
2022/09/21 05:24:44;;;;;;;11.20;3.50;;;;;;;;;;5002294;28;20027;-64
2022/09/21 05:27:11;;;;;;;5.60;2.83;;;;;;;;;;5008420;28;20036;-64
2022/09/21 05:29:38;;;;;;;4.45;2.70;;;;;;;;;;5012524;28;20057;-64
2022/09/21 05:32:16;;;;;;;4.60;2.70;;;;;;;;;;5001976;28;20030;-65
2022/09/21 05:34:50;;;;;;;6.13;2.83;;;;;;;;;;4998778;28;20018;-64
2022/09/21 05:37:19;;;;;;;5.50;3.08;;;;;;;;;;5024103;28;20500;-64
2022/09/21 05:39:46;;;;;;;3.47;2.42;;;;;;;;;;5032352;28;20105;-64
2022/09/21 05:42:12;;;;;;;3.65;2.45;;;;;;;;;;5009080;28;20040;-64
2022/09/21 05:44:38;;;;;;;3.88;2.67;;;;;;;;;;5004596;28;20026;-64
2022/09/21 05:47:24;;;;;;;6.40;2.88;;;;;;;;;;5009937;28;20033;-64
2022/09/21 05:50:16;;;;;;;2.90;2.28;;;;;;;;;;5010063;28;20026;-64
2022/09/21 05:52:46;;;;;;;3.65;2.63;;;;;;;;;;5012929;28;20076;-64
2022/09/21 05:55:24;;;;;;;7.53;3.03;;;;;;;;;;5012456;28;20116;-64
2022/09/21 05:57:56;;;;;;;6.60;2.88;;;;;;;;;;5012581;28;20070;-64
2022/09/21 06:00:23;;;;;;;5.30;2.83;;;;;;;;;;5012465;28;20030;-64
2022/09/21 06:03:07;;;;;;;5.30;3.00;;;;;;;;;;5002962;28;20101;-67
2022/09/21 06:05:33;;;;;;;5.65;2.45;;;;;;;;;;5010477;28;20032;-65
2022/09/21 06:08:00;;;;;;;4.95;3.20;;;;;;;;;;5008850;28;20034;-64
2022/09/21 06:10:27;;;;;;;4.35;2.80;;;;;;;;;;5007281;28;20091;-65
2022/09/21 06:12:53;;;;;;;8.63;2.90;;;;;;;;;;4999318;28;20486;-65
2022/09/21 06:15:19;;;;;;;6.50;3.00;;;;;;;;;;4998582;28;20568;-65
2022/09/21 06:17:45;;;;;;;4.78;2.88;;;;;;;;;;5006848;28;20029;-65
2022/09/21 06:20:11;;;;;;;5.78;3.72;;;;;;;;;;5000585;28;20121;-65
2022/09/21 06:22:37;;;;;;;6.50;2.97;;;;;;;;;;4997591;28;20081;-64
2022/09/21 06:25:04;;;;;;;7.65;3.78;;;;;;;;;;4997955;28;20526;-64
2022/09/21 06:27:30;;;;;;;8.02;3.28;;;;;;;;;;4999853;28;20026;-64
2022/09/21 06:29:56;;;;;;;10.75;3.42;;;;;;;;;;5000492;28;20119;-65
2022/09/21 06:32:22;;;;;;;6.88;3.28;;;;;;;;;;5004834;28;20129;-64
2022/09/21 06:34:48;;;;;;;8.80;3.47;;;;;;;;;;5002210;28;20518;-64
2022/09/21 06:37:15;;;;;;;10.25;3.05;;;;;;;;;;5005266;28;20390;-64
2022/09/21 06:39:41;;;;;;;5.57;3.20;;;;;;;;;;5007270;28;20037;-64
2022/09/21 06:42:07;;;;;;;8.02;3.75;;;;;;;;;;5008516;28;20096;-64
2022/09/21 06:44:34;;;;;;;9.93;3.33;;;;;;;;;;5033315;28;20065;-64
2022/09/21 06:47:00;;;;;;;15.57;3.97;;;;;;;;;;5005654;28;20026;-64
2022/09/21 06:49:27;;;;;;;10.65;3.97;;;;;;;;;;5010468;28;20018;-64
2022/09/21 06:51:54;;;;;;;7.78;3.72;;;;;;;;;;5014110;28;20041;-64
2022/09/21 06:54:20;;;;;;;11.48;4.50;;;;;;;;;;5008179;28;20035;-65
2022/09/21 06:56:47;;;;;;;12.10;4.03;;;;;;;;;;5013998;28;20022;-65
2022/09/21 06:59:13;;;;;;;10.27;4.10;;;;;;;;;;5014669;28;20633;-65
2022/09/21 07:01:39;;;;;;;23.08;4.65;;;;;;;;;;5007783;28;20022;-65
2022/09/21 07:04:08;;;;;;;9.20;4.03;;;;;;;;;;5008280;28;20038;-65
2022/09/21 07:06:34;;;;;;;11.50;4.38;;;;;;;;;;5013030;28;20022;-65
2022/09/21 07:09:01;;;;;;;14.32;4.55;;;;;;;;;;5008591;28;20180;-65
2022/09/21 07:11:27;;;;;;;11.48;4.22;;;;;;;;;;5002989;28;20109;-65
2022/09/21 07:13:54;;;;;;;13.73;4.75;;;;;;;;;;5011443;28;20022;-65
2022/09/21 07:16:21;;;;;;;9.52;4.18;;;;;;;;;;5001802;28;20030;-65
2022/09/21 07:18:47;;;;;;;10.02;4.43;;;;;;;;;;5005207;28;20038;-65
2022/09/21 07:21:13;;;;;;;11.70;4.40;;;;;;;;;;5009479;28;20473;-65
2022/09/21 07:23:40;;;;;;;9.63;4.25;;;;;;;;;;5008614;28;20429;-65
2022/09/21 07:26:08;;;;;;;7.13;4.10;;;;;;;;;;5006238;28;20065;-65
2022/09/21 07:28:35;;;;;;;6.57;3.80;;;;;;;;;;5006446;28;20030;-65
2022/09/21 07:31:08;;;;;;;11.20;4.43;;;;;;;;;;4999525;28;20061;-65
2022/09/21 07:33:35;;;;;;;11.77;5.05;;;;;;;;;;4999829;28;20038;-65
2022/09/21 07:36:05;;;;;;;8.00;4.65;;;;;;;;;;5006078;28;20016;-65
2022/09/21 07:38:34;;;;;;;8.20;5.50;;;;;;;;;;5004763;28;20033;-65
2022/09/21 07:41:02;;;;;;;11.65;5.10;;;;;;;;;;5010384;28;20056;-65
2022/09/21 07:43:28;;;;;;;12.60;5.32;;;;;;;;;;5005195;28;20034;-65
2022/09/21 07:45:54;;;;;;;8.60;5.28;;;;;;;;;;5006903;28;20042;-65
2022/09/21 07:48:21;;;;;;;11.65;6.03;;;;;;;;;;5001920;28;20077;-65
2022/09/21 07:50:48;;;;;;;13.23;5.57;;;;;;;;;;5008670;28;20116;-65
2022/09/21 07:53:16;;;;;;;8.45;4.88;;;;;;;;;;5011623;28;20022;-65
2022/09/21 07:55:42;;;;;;;10.00;5.40;;;;;;;;;;5004804;28;20116;-65
2022/09/21 08:00:53;;;;;;;12.45;6.65;;;;;;;;;;5001855;28;20048;-65
2022/09/21 08:03:19;;;;;;;12.65;6.55;;;;;;;;;;5005079;28;20030;-65
2022/09/21 08:05:45;;;;;;;13.02;7.43;;;;;;;;;;5003342;28;20037;-65
2022/09/21 08:08:12;;;;;;;11.25;6.07;;;;;;;;;;4998976;28;20026;-65
2022/09/21 08:10:38;;;;;;;10.90;6.32;;;;;;;;;;5006173;28;20410;-65
2022/09/21 08:13:05;;;;;;;14.38;6.72;;;;;;;;;;5010935;28;20025;-65
2022/09/21 08:15:31;;;;;;;12.50;6.38;;;;;;;;;;5005776;28;20406;-65
2022/09/21 08:17:57;;;;;;;17.08;6.75;;;;;;;;;;5002646;28;20548;-65
2022/09/21 08:20:24;;;;;;;13.35;6.60;;;;;;;;;;5006491;28;20112;-65
2022/09/21 08:22:52;;;;;;;10.13;6.05;;;;;;;;;;5011575;28;20053;-65
2022/09/21 08:25:19;;;;;;;12.32;6.22;;;;;;;;;;5008415;28;20096;-65
2022/09/21 08:27:46;;;;;;;10.32;5.97;;;;;;;;;;4999404;28;20622;-65
2022/09/21 08:30:12;;;;;;;12.85;6.13;;;;;;;;;;5006427;28;20033;-65
2022/09/21 08:32:39;;;;;;;9.68;5.25;;;;;;;;;;5006664;28;20013;-65
2022/09/21 08:35:05;;;;;;;8.88;5.57;;;;;;;;;;5000083;28;20172;-65
2022/09/21 08:37:34;;;;;;;11.63;6.40;;;;;;;;;;5013146;28;20491;-65
2022/09/21 08:40:01;;;;;;;15.48;6.00;;;;;;;;;;5009880;28;20131;-65
2022/09/21 08:42:41;;;;;;;19.83;5.75;;;;;;;;;;5003851;28;20490;-65
2022/09/21 08:45:12;;;;;;;14.43;6.38;;;;;;;;;;5014885;28;20115;-65
2022/09/21 08:47:42;;;;;;;15.35;6.05;;;;;;;;;;5004908;28;20022;-65
2022/09/21 08:50:27;;;;;;;14.75;6.05;;;;;;;;;;5008727;28;20057;-65
2022/09/21 08:52:57;;;;;;;18.05;4.85;;;;;;;;;;4998965;28;20030;-65
2022/09/21 08:55:23;;;;;;;13.55;5.20;;;;;;;;;;5004823;28;20026;-65
2022/09/21 08:57:49;;;;;;;12.50;5.00;;;;;;;;;;5006784;28;20402;-65
2022/09/21 09:00:17;;;;;;;9.93;4.68;;;;;;;;;;5001809;28;20033;-65
2022/09/21 09:02:49;;;;;;;12.02;5.43;;;;;;;;;;5003368;28;20525;-66
2022/09/21 09:05:22;;;;;;;7.90;4.10;;;;;;;;;;5007076;28;20042;-66
2022/09/21 09:07:52;;;;;;;10.50;4.82;;;;;;;;;;5004011;28;20042;-66
2022/09/21 09:10:28;;;;;;;7.45;4.00;;;;;;;;;;5007872;28;20095;-66
2022/09/21 09:12:54;;;;;;;14.40;4.30;;;;;;;;;;5000913;28;20485;-65
2022/09/21 09:15:37;;;;;;;6.20;3.25;;;;;;;;;;5010731;28;20029;-65
2022/09/21 09:18:23;;;;;;;13.68;3.63;;;;;;;;;;5009193;28;20056;-65
2022/09/21 09:20:54;;;;;;;15.10;4.60;;;;;;;;;;5004018;28;20052;-65
2022/09/21 09:23:26;;;;;;;14.40;5.22;;;;;;;;;;5008429;28;20026;-65
2022/09/21 09:26:05;;;;;;;13.20;5.00;;;;;;;;;;5007219;28;20037;-65
2022/09/21 09:28:34;;;;;;;10.38;4.35;;;;;;;;;;5003444;28;20141;-65
2022/09/21 09:31:03;;;;;;;7.65;4.30;;;;;;;;;;5005464;28;20087;-65
2022/09/21 09:33:51;;;;;;;6.53;3.80;;;;;;;;;;5010022;28;20026;-65
2022/09/21 09:36:18;;;;;;;6.65;4.30;;;;;;;;;;5002791;28;20030;-65
2022/09/21 09:38:57;;;;;;;7.60;3.78;;;;;;;;;;5003718;28;20033;-65
2022/09/21 09:41:30;;;;;;;5.55;3.40;;;;;;;;;;5002645;28;20530;-65
2022/09/21 09:44:15;;;;;;;6.43;4.40;;;;;;;;;;5008518;28;20033;-65
2022/09/21 09:46:44;;;;;;;7.72;3.75;;;;;;;;;;5008363;28;20040;-65
2022/09/21 09:49:25;;;;;;;7.20;4.38;;;;;;;;;;5002139;28;20018;-65
2022/09/21 09:51:52;;;;;;;8.73;4.43;;;;;;;;;;5007596;28;20036;-65
2022/09/21 09:54:20;;;;;;;8.38;4.53;;;;;;;;;;5004857;28;20378;-65
2022/09/21 09:56:46;;;;;;;7.63;5.22;;;;;;;;;;5007132;28;20066;-65
2022/09/21 09:59:18;;;;;;;9.23;4.93;;;;;;;;;;5003290;28;20060;-65
2022/09/21 10:01:46;;;;;;;7.72;5.15;;;;;;;;;;4999198;28;20125;-65
2022/09/21 10:04:16;;;;;;;11.23;5.15;;;;;;;;;;5002600;28;20217;-65
2022/09/21 10:06:43;;;;;;;10.18;5.65;;;;;;;;;;5005159;28;20029;-65
2022/09/21 10:09:18;;;;;;;9.75;5.20;;;;;;;;;;5000792;28;20030;-65
2022/09/21 10:11:44;;;;;;;10.65;5.30;;;;;;;;;;5005094;28;20080;-65
2022/09/21 10:14:14;;;;;;;9.48;5.60;;;;;;;;;;5002645;28;20022;-65
2022/09/21 10:16:40;;;;;;;10.32;5.55;;;;;;;;;;4998636;28;20101;-66
2022/09/21 10:19:14;;;;;;;9.80;5.50;;;;;;;;;;5006387;28;20088;-66
2022/09/21 10:21:42;;;;;;;10.93;5.95;;;;;;;;;;5000906;28;20034;-66
2022/09/21 10:24:26;;;;;;;7.05;4.88;;;;;;;;;;5001445;28;20018;-66
2022/09/21 10:27:01;;;;;;;7.50;5.25;;;;;;;;;;4996616;28;20069;-66
2022/09/21 10:29:29;;;;;;;10.05;5.15;;;;;;;;;;5006159;28;20113;-66
2022/09/21 10:31:56;;;;;;;9.10;4.85;;;;;;;;;;5004623;28;20049;-66
2022/09/21 10:34:22;;;;;;;12.45;5.22;;;;;;;;;;5006179;28;20014;-66
2022/09/21 10:36:54;;;;;;;8.50;4.80;;;;;;;;;;4999875;28;20027;-66
2022/09/21 10:39:27;;;;;;;9.03;5.40;;;;;;;;;;5005449;28;20022;-66
2022/09/21 10:41:56;;;;;;;9.00;5.00;;;;;;;;;;5005649;28;20029;-66
2022/09/21 10:44:25;;;;;;;8.63;5.30;;;;;;;;;;5012139;28;20382;-66
2022/09/21 10:46:51;;;;;;;10.27;5.15;;;;;;;;;;5003132;28;20316;-66
2022/09/21 10:49:23;;;;;;;13.55;7.03;;;;;;;;;;5008091;28;20018;-66
2022/09/21 10:51:50;;;;;;;8.00;5.30;;;;;;;;;;5004747;28;20022;-66
2022/09/21 10:54:20;;;;;;;13.60;8.88;;;;;;;;;;5003380;28;20029;-65
2022/09/21 10:56:51;;;;;;;9.52;5.18;;;;;;;;;;5002336;28;20058;-66
2022/09/21 10:59:20;;;;;;;5.80;4.45;;;;;;;;;;5008184;28;20487;-70
2022/09/21 11:01:48;;;;;;;7.90;4.80;;;;;;;;;;5010128;28;20050;-70
2022/09/21 11:04:27;;;;;;;6.50;5.15;;;;;;;;;;5008869;28;20502;-70
2022/09/21 11:07:25;;;;;;;5.40;4.05;;;;;;;;;;5008705;28;20048;-70
2022/09/21 11:10:00;;;;;;;8.60;4.60;;;;;;;;;;5003702;28;20090;-70
2022/09/21 11:12:29;;;;;;;5.93;3.53;;;;;;;;;;5007058;28;20606;-70
2022/09/21 11:15:13;;;;;;;8.80;4.85;;;;;;;;;;5005970;28;20026;-70
2022/09/21 11:17:42;;;;;;;7.68;4.82;;;;;;;;;;5005860;28;20084;-69
2022/09/21 11:20:09;;;;;;;5.43;3.75;;;;;;;;;;5006595;28;20034;-69
2022/09/21 11:22:40;;;;;;;5.97;3.58;;;;;;;;;;5008246;28;20061;-70
2022/09/21 11:25:27;;;;;;;5.43;3.03;;;;;;;;;;5002961;28;20503;-70
2022/09/21 11:28:14;;;;;;;10.18;3.05;;;;;;;;;;5002109;28;20077;-70
2022/09/21 11:30:46;;;;;;;8.45;3.80;;;;;;;;;;5006166;28;20034;-70
2022/09/21 11:33:12;;;;;;;8.88;4.07;;;;;;;;;;5009445;28;20121;-70
2022/09/21 11:35:58;;;;;;;6.93;4.28;;;;;;;;;;5001821;28;20032;-70
2022/09/21 11:38:24;;;;;;;6.57;4.47;;;;;;;;;;5005480;28;21158;-70
2022/09/21 11:41:09;;;;;;;4.40;3.40;;;;;;;;;;5006318;28;20538;-70
2022/09/21 11:43:50;;;;;;;5.65;4.07;;;;;;;;;;5003686;28;20061;-70
2022/09/21 11:46:32;;;;;;;3.80;3.40;;;;;;;;;;5004443;28;20462;-70
2022/09/21 11:49:10;;;;;;;8.73;3.80;;;;;;;;;;5008940;28;20494;-70
2022/09/21 11:51:46;;;;;;;7.75;3.85;;;;;;;;;;5006685;28;20034;-70
2022/09/21 11:54:31;;;;;;;6.57;4.13;;;;;;;;;;5008950;28;20478;-70
2022/09/21 11:57:27;;;;;;;7.05;4.15;;;;;;;;;;5011488;28;20695;-70
2022/09/21 12:00:14;;;;;;;6.72;3.67;;;;;;;;;;5001032;28;20133;-70
2022/09/21 12:02:41;;;;;;;9.40;3.47;;;;;;;;;;4997707;28;20039;-70
2022/09/21 12:05:18;;;;;;;7.53;3.65;;;;;;;;;;5010687;28;20030;-70
2022/09/21 12:07:56;;;;;;;6.57;4.43;;;;;;;;;;5008368;28;20030;-70
2022/09/21 12:10:43;;;;;;;5.45;3.30;;;;;;;;;;5006783;28;20145;-70
2022/09/21 12:13:18;;;;;;;3.88;3.15;;;;;;;;;;5009729;28;20026;-70
2022/09/21 12:15:44;;;;;;;6.47;3.78;;;;;;;;;;5007805;28;20024;-70
2022/09/21 12:18:28;;;;;;;7.90;3.90;;;;;;;;;;5008174;28;20049;-70
2022/09/21 12:20:54;;;;;;;7.38;3.70;;;;;;;;;;5010112;28;20040;-70
2022/09/21 12:23:40;;;;;;;7.80;3.22;;;;;;;;;;5007157;28;20025;-70
2022/09/21 12:26:08;;;;;;;5.68;3.65;;;;;;;;;;5008507;28;20108;-70
2022/09/21 12:28:38;;;;;;;5.22;3.88;;;;;;;;;;5012059;28;20034;-70
2022/09/21 12:31:09;;;;;;;6.63;3.75;;;;;;;;;;5010246;28;20041;-70
2022/09/21 12:33:39;;;;;;;6.50;2.90;;;;;;;;;;5014493;28;20033;-70
2022/09/21 12:36:17;;;;;;;4.50;3.08;;;;;;;;;;5004952;28;20069;-70
2022/09/21 12:38:48;;;;;;;11.65;3.78;;;;;;;;;;5006823;28;20022;-70
2022/09/21 12:41:25;;;;;;;5.30;2.90;;;;;;;;;;5003107;28;20045;-70
2022/09/21 12:44:04;;;;;;;7.88;3.30;;;;;;;;;;5007996;28;20057;-70
2022/09/21 12:46:36;;;;;;;6.80;3.08;;;;;;;;;;5006660;28;20103;-70
2022/09/21 12:49:08;;;;;;;5.88;2.97;;;;;;;;;;5034934;28;20034;-70
2022/09/21 12:51:36;;;;;;;4.10;2.85;;;;;;;;;;5010113;28;20474;-70
2022/09/21 12:54:08;;;;;;;5.95;3.22;;;;;;;;;;5001532;28;20552;-70
2022/09/21 12:56:39;;;;;;;5.65;3.05;;;;;;;;;;5005144;28;20406;-70
2022/09/21 12:59:08;;;;;;;8.30;3.03;;;;;;;;;;5010782;28;20611;-70
2022/09/21 13:01:43;;;;;;;4.32;3.40;;;;;;;;;;5001740;28;20032;-70
2022/09/21 13:04:15;;;;;;;6.80;2.70;;;;;;;;;;5005537;28;20036;-70
2022/09/21 13:06:54;;;;;;;7.00;3.13;;;;;;;;;;5007900;28;20030;-70
2022/09/21 13:09:21;;;;;;;3.50;2.50;;;;;;;;;;5017347;28;20017;-70
2022/09/21 13:11:49;;;;;;;4.30;2.75;;;;;;;;;;4999775;28;20034;-70
2022/09/21 13:14:17;;;;;;;6.50;2.55;;;;;;;;;;5011625;28;20049;-70
2022/09/21 13:16:43;;;;;;;6.13;3.33;;;;;;;;;;5009484;28;20033;-70
2022/09/21 13:19:22;;;;;;;5.85;2.88;;;;;;;;;;5000886;28;20021;-70
2022/09/21 13:22:13;;;;;;;6.90;2.90;;;;;;;;;;4999169;28;20708;-70
2022/09/21 13:24:41;;;;;;;5.82;2.75;;;;;;;;;;4999951;28;20080;-70
2022/09/21 13:27:07;;;;;;;6.07;2.40;;;;;;;;;;4998818;28;20030;-70
2022/09/21 13:29:35;;;;;;;5.30;2.35;;;;;;;;;;4998952;28;20030;-70
2022/09/21 13:32:13;;;;;;;6.00;3.28;;;;;;;;;;4999289;28;20049;-70
2022/09/21 13:34:40;;;;;;;6.10;2.78;;;;;;;;;;5003988;28;20394;-70
2022/09/21 13:37:06;;;;;;;4.78;2.42;;;;;;;;;;5005755;28;20045;-70
2022/09/21 13:39:33;;;;;;;5.05;2.78;;;;;;;;;;5008510;28;20022;-70
2022/09/21 13:42:19;;;;;;;4.15;2.47;;;;;;;;;;5003987;28;20077;-70
2022/09/21 13:44:45;;;;;;;7.30;2.55;;;;;;;;;;4998520;28;20521;-70
2022/09/21 13:47:13;;;;;;;7.93;2.97;;;;;;;;;;4999837;28;20375;-70
2022/09/21 13:49:39;;;;;;;4.55;2.97;;;;;;;;;;5002303;28;20022;-70
2022/09/21 13:52:07;;;;;;;6.38;2.53;;;;;;;;;;5002333;28;20108;-70
2022/09/21 13:54:55;;;;;;;3.28;2.38;;;;;;;;;;5006898;28;20060;-70
2022/09/21 13:57:25;;;;;;;12.00;3.65;;;;;;;;;;5030055;28;20054;-69
2022/09/21 14:00:24;;;;;;;6.30;2.67;;;;;;;;;;5023938;28;20180;-69
2022/09/21 14:02:50;;;;;;;8.20;2.50;;;;;;;;;;5006361;28;20041;-68
2022/09/21 14:05:35;;;;;;;3.78;2.63;;;;;;;;;;5008271;28;20116;-68
2022/09/21 14:08:04;;;;;;;5.88;2.53;;;;;;;;;;5008572;28;20132;-68
2022/09/21 14:10:31;;;;;;;6.68;2.20;;;;;;;;;;5007551;28;20065;-68
2022/09/21 14:12:59;;;;;;;9.00;2.85;;;;;;;;;;5008407;28;20033;-68
2022/09/21 14:15:25;;;;;;;5.70;2.30;;;;;;;;;;5003847;28;20402;-68
2022/09/21 14:18:14;;;;;;;7.65;2.45;;;;;;;;;;5010675;28;20034;-68
2022/09/21 14:20:41;;;;;;;5.82;2.75;;;;;;;;;;5013187;28;20066;-68
2022/09/21 14:23:22;;;;;;;5.10;2.65;;;;;;;;;;5008139;28;20037;-68
2022/09/21 14:25:56;;;;;;;3.60;2.53;;;;;;;;;;5010099;28;20037;-68
2022/09/21 14:28:34;;;;;;;9.50;2.65;;;;;;;;;;5005785;28;20458;-68
2022/09/21 14:31:07;;;;;;;7.95;2.60;;;;;;;;;;5008716;28;20049;-68
2022/09/21 14:33:38;;;;;;;6.22;2.45;;;;;;;;;;5004762;28;20120;-68
2022/09/21 14:36:08;;;;;;;5.50;2.35;;;;;;;;;;5009037;28;20369;-68
2022/09/21 14:38:49;;;;;;;3.50;2.67;;;;;;;;;;5002778;28;20457;-68
2022/09/21 14:41:19;;;;;;;5.70;2.53;;;;;;;;;;5004476;28;20037;-68
2022/09/21 14:43:49;;;;;;;8.18;2.90;;;;;;;;;;5007997;28;20037;-67
2022/09/21 14:46:28;;;;;;;5.07;3.40;;;;;;;;;;5007873;28;20518;-67
2022/09/21 14:49:13;;;;;;;11.75;2.88;;;;;;;;;;5012197;28;20044;-68
2022/09/21 14:51:39;;;;;;;6.72;3.17;;;;;;;;;;5011300;28;20026;-68
2022/09/21 14:54:05;;;;;;;9.65;2.83;;;;;;;;;;5009787;28;20117;-67
2022/09/21 14:56:50;;;;;;;8.10;2.60;;;;;;;;;;5007423;28;20029;-67
2022/09/21 14:59:22;;;;;;;7.65;2.60;;;;;;;;;;5009611;28;20029;-68
2022/09/21 15:01:58;;;;;;;4.03;2.70;;;;;;;;;;5010649;28;20029;-68
2022/09/21 15:04:24;;;;;;;8.90;3.05;;;;;;;;;;5003143;28;20117;-68